createdAt,value
2023-01-25T00:00:08.661Z,1034
2023-01-25T00:01:08.105Z,1034
2023-01-25T00:02:09.324Z,1034
2023-01-25T00:03:09.414Z,1034
2023-01-25T00:04:09.252Z,1034
2023-01-25T00:05:08.310Z,1034
2023-01-25T00:06:08.026Z,1034
2023-01-25T00:07:08.062Z,1034
2023-01-25T00:08:08.385Z,1034
2023-01-25T00:09:08.409Z,1034
2023-01-25T00:10:09.144Z,1034
2023-01-25T00:11:07.854Z,1034
2023-01-25T00:12:08.244Z,1034
2023-01-25T00:13:07.840Z,1034
2023-01-25T00:14:09.299Z,1034
2023-01-25T00:15:08.909Z,1034
2023-01-25T00:16:08.623Z,1034
2023-01-25T00:17:08.784Z,1034
2023-01-25T00:18:08.104Z,1034
2023-01-25T00:19:08.641Z,1034
2023-01-25T00:20:08.333Z,1034
2023-01-25T00:21:08.236Z,1034
2023-01-25T00:22:08.286Z,1034
2023-01-25T00:23:07.861Z,1034
2023-01-25T00:24:09.111Z,1034
2023-01-25T00:25:08.521Z,1034
2023-01-25T00:26:09.075Z,1034
2023-01-25T00:27:08.615Z,1034
2023-01-25T00:28:08.727Z,1034
2023-01-25T00:29:08.539Z,1034
2023-01-25T00:30:08.281Z,1034
2023-01-25T00:31:08.677Z,1034
2023-01-25T00:32:08.291Z,1034
2023-01-25T00:33:08.050Z,1034
2023-01-25T00:34:08.204Z,1034
2023-01-25T00:35:09.055Z,1034
2023-01-25T00:36:08.607Z,1034
2023-01-25T00:37:08.610Z,1034
2023-01-25T00:38:08.226Z,1034
2023-01-25T00:39:08.114Z,1034
2023-01-25T00:40:09.120Z,1034
2023-01-25T00:41:07.138Z,1034
2023-01-25T00:42:08.780Z,1034
2023-01-25T00:43:08.695Z,1034
2023-01-25T00:44:08.571Z,1034
2023-01-25T00:45:08.482Z,1034
2023-01-25T00:46:08.845Z,1034
2023-01-25T00:47:07.944Z,1034
2023-01-25T00:48:08.951Z,1034
2023-01-25T00:49:08.052Z,1034
2023-01-25T00:50:08.624Z,1034
2023-01-25T00:51:08.509Z,1034
2023-01-25T00:52:08.138Z,1034
2023-01-25T00:53:08.608Z,1034
2023-01-25T00:54:08.110Z,1034
2023-01-25T00:55:09.704Z,1034
2023-01-25T00:56:08.088Z,1034
2023-01-25T00:57:08.544Z,1034
2023-01-25T00:58:09.342Z,1034
2023-01-25T00:59:08.009Z,1034
2023-01-25T01:00:08.745Z,1034
2023-01-25T01:01:08.334Z,1034
2023-01-25T01:02:08.063Z,1034
2023-01-25T01:03:07.162Z,1034
2023-01-25T01:04:08.360Z,1034
2023-01-25T01:05:07.628Z,1034
2023-01-25T01:06:07.867Z,1034
2023-01-25T01:07:08.208Z,1034
2023-01-25T01:08:08.737Z,1034
2023-01-25T01:09:08.239Z,1034
2023-01-25T01:10:08.022Z,1034
2023-01-25T01:11:08.639Z,1034
2023-01-25T01:12:08.704Z,1034
2023-01-25T01:13:08.614Z,1034
2023-01-25T01:14:08.539Z,1034
2023-01-25T01:15:09.056Z,1034
2023-01-25T01:16:07.972Z,1034
2023-01-25T01:17:08.138Z,1034
2023-01-25T01:18:08.083Z,1034
2023-01-25T01:19:08.489Z,1034
2023-01-25T01:20:08.000Z,1034
2023-01-25T01:21:07.951Z,1034
2023-01-25T01:22:09.093Z,1034
2023-01-25T01:23:08.241Z,1034
2023-01-25T01:24:08.034Z,1034
2023-01-25T01:25:08.785Z,1034
2023-01-25T01:26:07.914Z,1034
2023-01-25T01:27:08.237Z,1034
2023-01-25T01:28:08.006Z,1034
2023-01-25T01:29:07.197Z,1034
2023-01-25T01:30:07.915Z,1034
2023-01-25T01:31:08.456Z,1034
2023-01-25T01:32:08.821Z,1034
2023-01-25T01:33:07.995Z,1034
2023-01-25T01:34:08.949Z,1034
2023-01-25T01:35:09.058Z,1034
2023-01-25T01:36:08.819Z,1034
2023-01-25T01:37:08.150Z,1034
2023-01-25T01:38:08.724Z,1034
2023-01-25T01:39:07.973Z,1034
2023-01-25T01:40:08.215Z,1034
2023-01-25T01:41:08.290Z,1034
2023-01-25T01:42:08.121Z,1034
2023-01-25T01:43:08.669Z,1034
2023-01-25T01:44:08.232Z,1034
2023-01-25T01:45:08.208Z,1034
2023-01-25T01:46:08.943Z,1034
2023-01-25T01:47:08.995Z,1034
2023-01-25T01:48:08.470Z,1034
2023-01-25T01:49:08.031Z,1034
2023-01-25T01:50:07.971Z,1034
2023-01-25T01:51:07.973Z,1034
2023-01-25T01:52:07.846Z,1034
2023-01-25T01:53:08.792Z,1034
2023-01-25T01:54:08.869Z,1034
2023-01-25T01:55:08.263Z,1034
2023-01-25T01:56:08.816Z,1034
2023-01-25T01:57:08.233Z,1034
2023-01-25T01:58:08.430Z,1034
2023-01-25T01:59:09.231Z,1034
2023-01-25T02:00:08.896Z,1034
2023-01-25T02:01:09.165Z,1034
2023-01-25T02:02:09.411Z,1034
2023-01-25T02:03:08.306Z,1034
2023-01-25T02:04:07.950Z,1034
2023-01-25T02:05:08.825Z,1034
2023-01-25T02:06:08.703Z,1034
2023-01-25T02:07:08.690Z,1034
2023-01-25T02:08:09.527Z,1034
2023-01-25T02:09:07.952Z,1034
2023-01-25T02:10:07.857Z,1034
2023-01-25T02:11:07.912Z,1034
2023-01-25T02:12:06.675Z,1034
2023-01-25T02:13:08.503Z,1034
2023-01-25T02:14:08.296Z,1033
2023-01-25T02:15:08.787Z,1034
2023-01-25T02:16:07.912Z,1034
2023-01-25T02:17:08.611Z,1034
2023-01-25T02:18:08.026Z,1034
2023-01-25T02:19:08.359Z,1033
2023-01-25T02:20:09.194Z,1034
2023-01-25T02:21:08.621Z,1034
2023-01-25T02:22:08.430Z,1034
2023-01-25T02:23:08.374Z,1034
2023-01-25T02:24:08.417Z,1034
2023-01-25T02:25:08.311Z,1034
2023-01-25T02:26:08.598Z,1034
2023-01-25T02:27:07.899Z,1034
2023-01-25T02:28:08.547Z,1033
2023-01-25T02:29:07.882Z,1034
2023-01-25T02:30:08.202Z,1034
2023-01-25T02:31:08.429Z,1034
2023-01-25T02:32:08.052Z,1033
2023-01-25T02:33:07.801Z,1033
2023-01-25T02:34:08.703Z,1034
2023-01-25T02:35:09.813Z,1033
2023-01-25T02:36:08.995Z,1033
2023-01-25T02:37:08.572Z,1033
2023-01-25T02:38:08.374Z,1033
2023-01-25T02:39:09.167Z,1033
2023-01-25T02:40:08.001Z,1033
2023-01-25T02:41:07.804Z,1033
2023-01-25T02:42:08.211Z,1033
2023-01-25T02:43:08.967Z,1034
2023-01-25T02:44:08.629Z,1033
2023-01-25T02:45:08.257Z,1033
2023-01-25T02:46:08.403Z,1033
2023-01-25T02:47:08.426Z,1033
2023-01-25T02:48:07.934Z,1033
2023-01-25T02:49:08.535Z,1033
2023-01-25T02:50:08.655Z,1033
2023-01-25T02:51:08.063Z,1033
2023-01-25T02:52:08.470Z,1033
2023-01-25T02:53:08.067Z,1033
2023-01-25T02:54:07.833Z,1033
2023-01-25T02:55:09.031Z,1033
2023-01-25T02:56:07.896Z,1033
2023-01-25T02:57:08.157Z,1033
2023-01-25T02:58:09.089Z,1033
2023-01-25T02:59:07.898Z,1033
2023-01-25T03:00:08.280Z,1033
2023-01-25T03:01:07.939Z,1033
2023-01-25T03:02:08.871Z,1033
2023-01-25T03:03:07.929Z,1033
2023-01-25T03:04:08.644Z,1033
2023-01-25T03:05:08.702Z,1033
2023-01-25T03:06:07.915Z,1033
2023-01-25T03:07:07.837Z,1033
2023-01-25T03:08:08.809Z,1033
2023-01-25T03:09:08.554Z,1033
2023-01-25T03:10:08.363Z,1033
2023-01-25T03:11:09.326Z,1033
2023-01-25T03:12:08.365Z,1033
2023-01-25T03:13:08.837Z,1033
2023-01-25T03:14:08.493Z,1033
2023-01-25T03:15:08.726Z,1033
2023-01-25T03:16:08.367Z,1033
2023-01-25T03:17:08.182Z,1033
2023-01-25T03:18:07.921Z,1033
2023-01-25T03:19:07.897Z,1033
2023-01-25T03:20:08.843Z,1033
2023-01-25T03:21:06.893Z,1033
2023-01-25T03:22:08.024Z,1033
2023-01-25T03:23:08.460Z,1033
2023-01-25T03:24:08.579Z,1033
2023-01-25T03:25:09.268Z,1033
2023-01-25T03:26:07.967Z,1033
2023-01-25T03:27:07.874Z,1033
2023-01-25T03:28:07.890Z,1033
2023-01-25T03:29:08.052Z,1033
2023-01-25T03:30:07.994Z,1033
2023-01-25T03:31:08.662Z,1033
2023-01-25T03:32:07.936Z,1033
2023-01-25T03:33:08.845Z,1033
2023-01-25T03:34:08.422Z,1033
2023-01-25T03:35:08.499Z,1033
2023-01-25T03:36:10.397Z,1033
2023-01-25T03:37:10.649Z,1033
2023-01-25T03:38:09.286Z,1033
2023-01-25T03:39:09.323Z,1033
2023-01-25T03:40:09.511Z,1033
2023-01-25T03:41:07.850Z,1033
2023-01-25T03:42:08.379Z,1033
2023-01-25T03:43:06.651Z,1033
2023-01-25T03:44:08.799Z,1033
2023-01-25T03:45:08.687Z,1033
2023-01-25T03:46:09.228Z,1033
2023-01-25T03:47:08.748Z,1033
2023-01-25T03:48:08.635Z,1033
2023-01-25T03:49:07.886Z,1033
2023-01-25T03:50:08.251Z,1033
2023-01-25T03:51:08.208Z,1033
2023-01-25T03:52:08.689Z,1033
2023-01-25T03:53:07.793Z,1033
2023-01-25T03:54:08.107Z,1033
2023-01-25T03:55:08.219Z,1033
2023-01-25T03:56:08.412Z,1033
2023-01-25T03:57:08.450Z,1033
2023-01-25T03:58:09.096Z,1033
2023-01-25T03:59:07.963Z,1033
2023-01-25T04:00:08.454Z,1033
2023-01-25T04:01:08.720Z,1033
2023-01-25T04:02:08.502Z,1033
2023-01-25T04:03:08.731Z,1033
2023-01-25T04:04:08.054Z,1033
2023-01-25T04:05:08.332Z,1033
2023-01-25T04:06:07.134Z,1033
2023-01-25T04:07:08.125Z,1033
2023-01-25T04:08:08.237Z,1033
2023-01-25T04:09:09.205Z,1033
2023-01-25T04:10:08.176Z,1033
2023-01-25T04:11:07.891Z,1033
2023-01-25T04:12:08.993Z,1033
2023-01-25T04:13:08.092Z,1033
2023-01-25T04:14:07.917Z,1033
2023-01-25T04:15:08.127Z,1033
2023-01-25T04:16:08.684Z,1033
2023-01-25T04:17:08.671Z,1033
2023-01-25T04:18:08.031Z,1033
2023-01-25T04:19:08.256Z,1033
2023-01-25T04:20:07.973Z,1033
2023-01-25T04:21:07.857Z,1033
2023-01-25T04:22:08.325Z,1033
2023-01-25T04:23:08.617Z,1033
2023-01-25T04:24:08.903Z,1033
2023-01-25T04:25:08.852Z,1033
2023-01-25T04:26:09.020Z,1033
2023-01-25T04:27:08.717Z,1033
2023-01-25T04:29:07.786Z,1033
2023-01-25T04:30:08.004Z,1033
2023-01-25T04:31:08.649Z,1033
2023-01-25T04:32:07.949Z,1033
2023-01-25T04:33:09.493Z,1033
2023-01-25T04:34:08.379Z,1033
2023-01-25T04:35:08.724Z,1033
2023-01-25T04:36:08.218Z,1033
2023-01-25T04:37:08.202Z,1033
2023-01-25T04:38:08.570Z,1033
2023-01-25T04:39:09.675Z,1033
2023-01-25T04:40:07.892Z,1033
2023-01-25T04:41:08.312Z,1033
2023-01-25T04:42:08.978Z,1033
2023-01-25T04:43:08.781Z,1033
2023-01-25T04:44:08.370Z,1033
2023-01-25T04:45:08.625Z,1033
2023-01-25T04:46:08.630Z,1033
2023-01-25T04:47:08.093Z,1033
2023-01-25T04:48:09.742Z,1033
2023-01-25T04:49:08.363Z,1033
2023-01-25T04:50:08.393Z,1033
2023-01-25T04:51:08.120Z,1033
2023-01-25T04:52:07.962Z,1033
2023-01-25T04:53:08.113Z,1033
2023-01-25T04:54:08.232Z,1033
2023-01-25T04:55:09.239Z,1033
2023-01-25T04:56:08.655Z,1033
2023-01-25T04:57:08.570Z,1033
2023-01-25T04:58:08.457Z,1033
2023-01-25T04:59:09.427Z,1033
2023-01-25T05:00:08.582Z,1033
2023-01-25T05:01:08.829Z,1032
2023-01-25T05:02:08.357Z,1033
2023-01-25T05:03:08.288Z,1032
2023-01-25T05:04:08.515Z,1032
2023-01-25T05:05:08.893Z,1032
2023-01-25T05:06:08.221Z,1033
2023-01-25T05:07:08.231Z,1033
2023-01-25T05:08:08.322Z,1032
2023-01-25T05:09:08.410Z,1032
2023-01-25T05:10:07.887Z,1033
2023-01-25T05:11:09.059Z,1033
2023-01-25T05:12:07.890Z,1032
2023-01-25T05:13:08.318Z,1032
2023-01-25T05:14:08.741Z,1033
2023-01-25T05:15:08.309Z,1032
2023-01-25T05:16:09.880Z,1032
2023-01-25T05:17:08.149Z,1032
2023-01-25T05:18:08.456Z,1032
2023-01-25T05:19:08.397Z,1032
2023-01-25T05:20:09.191Z,1032
2023-01-25T05:21:08.566Z,1032
2023-01-25T05:22:08.175Z,1032
2023-01-25T05:23:08.419Z,1032
2023-01-25T05:24:08.227Z,1032
2023-01-25T05:25:09.084Z,1032
2023-01-25T05:26:08.026Z,1032
2023-01-25T05:27:07.835Z,1032
2023-01-25T05:28:08.498Z,1032
2023-01-25T05:29:08.892Z,1032
2023-01-25T05:30:08.135Z,1032
2023-01-25T05:31:08.808Z,1032
2023-01-25T05:32:08.865Z,1032
2023-01-25T05:33:08.271Z,1032
2023-01-25T05:34:08.063Z,1032
2023-01-25T05:35:08.685Z,1032
2023-01-25T05:36:08.317Z,1032
2023-01-25T05:37:06.663Z,1032
2023-01-25T05:38:07.828Z,1032
2023-01-25T05:39:08.493Z,1032
2023-01-25T05:40:10.166Z,1032
2023-01-25T05:41:08.278Z,1032
2023-01-25T05:42:08.443Z,1032
2023-01-25T05:43:09.049Z,1032
2023-01-25T05:44:08.455Z,1032
2023-01-25T05:45:08.221Z,1032
2023-01-25T05:46:08.788Z,1032
2023-01-25T05:47:08.676Z,1032
2023-01-25T05:48:08.033Z,1032
2023-01-25T05:49:08.104Z,1032
2023-01-25T05:50:09.535Z,1032
2023-01-25T05:51:07.926Z,1032
2023-01-25T05:52:09.115Z,1032
2023-01-25T05:53:09.076Z,1032
2023-01-25T05:54:07.961Z,1032
2023-01-25T05:55:09.195Z,1032
2023-01-25T05:56:07.988Z,1032
2023-01-25T05:57:08.203Z,1032
2023-01-25T05:58:09.150Z,1032
2023-01-25T05:59:06.691Z,1032
2023-01-25T06:00:08.551Z,1032
2023-01-25T06:01:08.318Z,1032
2023-01-25T06:02:08.749Z,1032
2023-01-25T06:03:09.392Z,1032
2023-01-25T06:04:07.898Z,1032
2023-01-25T06:05:09.245Z,1032
2023-01-25T06:06:07.972Z,1032
2023-01-25T06:07:08.206Z,1032
2023-01-25T06:08:08.554Z,1032
2023-01-25T06:09:08.860Z,1032
2023-01-25T06:10:07.870Z,1032
2023-01-25T06:11:08.720Z,1032
2023-01-25T06:12:08.367Z,1032
2023-01-25T06:13:08.498Z,1032
2023-01-25T06:14:08.363Z,1032
2023-01-25T06:15:08.687Z,1032
2023-01-25T06:16:08.207Z,1032
2023-01-25T06:17:08.243Z,1032
2023-01-25T06:18:08.741Z,1032
2023-01-25T06:19:08.366Z,1032
2023-01-25T06:20:07.883Z,1032
2023-01-25T06:21:08.487Z,1032
2023-01-25T06:22:08.470Z,1032
2023-01-25T06:23:07.900Z,1032
2023-01-25T06:24:08.386Z,1032
2023-01-25T06:25:09.787Z,1032
2023-01-25T06:26:08.296Z,1032
2023-01-25T06:27:08.055Z,1032
2023-01-25T06:28:08.739Z,1032
2023-01-25T06:29:09.007Z,1032
2023-01-25T06:30:08.843Z,1032
2023-01-25T06:31:08.388Z,1032
2023-01-25T06:32:09.060Z,1032
2023-01-25T06:33:08.351Z,1032
2023-01-25T06:34:08.270Z,1032
2023-01-25T06:35:08.817Z,1032
2023-01-25T06:36:08.451Z,1032
2023-01-25T06:37:08.123Z,1032
2023-01-25T06:38:07.804Z,1032
2023-01-25T06:39:09.520Z,1032
2023-01-25T06:40:09.196Z,1032
2023-01-25T06:41:09.455Z,1032
2023-01-25T06:42:08.819Z,1032
2023-01-25T06:43:07.827Z,1032
2023-01-25T06:44:09.039Z,1032
2023-01-25T06:45:08.658Z,1032
2023-01-25T06:46:08.909Z,1032
2023-01-25T06:47:07.939Z,1032
2023-01-25T06:48:08.623Z,1032
2023-01-25T06:49:08.321Z,1032
2023-01-25T06:50:08.873Z,1032
2023-01-25T06:51:08.601Z,1032
2023-01-25T06:52:08.743Z,1032
2023-01-25T06:53:08.732Z,1032
2023-01-25T06:54:08.775Z,1032
2023-01-25T06:55:09.745Z,1032
2023-01-25T06:56:10.737Z,1032
2023-01-25T06:57:08.187Z,1032
2023-01-25T06:58:08.201Z,1032
2023-01-25T06:59:08.182Z,1032
2023-01-25T07:00:08.939Z,1032
2023-01-25T07:01:08.290Z,1032
2023-01-25T07:02:08.480Z,1032
2023-01-25T07:03:08.612Z,1032
2023-01-25T07:04:09.002Z,1032
2023-01-25T07:05:08.597Z,1032
2023-01-25T07:06:08.369Z,1032
2023-01-25T07:07:08.162Z,1032
2023-01-25T07:08:09.093Z,1032
2023-01-25T07:09:08.592Z,1032
2023-01-25T07:10:08.501Z,1032
2023-01-25T07:11:08.520Z,1032
2023-01-25T07:12:08.261Z,1032
2023-01-25T07:13:07.914Z,1032
2023-01-25T07:14:08.181Z,1032
2023-01-25T07:15:08.360Z,1032
2023-01-25T07:16:08.895Z,1032
2023-01-25T07:17:07.766Z,1032
2023-01-25T07:18:16.271Z,1032
2023-01-25T07:19:08.414Z,1032
2023-01-25T07:20:08.349Z,1032
2023-01-25T07:21:08.205Z,1032
2023-01-25T07:22:07.953Z,1032
2023-01-25T07:23:07.833Z,1032
2023-01-25T07:24:08.065Z,1032
2023-01-25T07:25:08.420Z,1032
2023-01-25T07:26:08.386Z,1032
2023-01-25T07:27:08.809Z,1032
2023-01-25T07:28:08.852Z,1032
2023-01-25T07:29:10.526Z,1032
2023-01-25T07:30:09.300Z,1032
2023-01-25T07:31:07.952Z,1032
2023-01-25T07:32:09.625Z,1032
2023-01-25T07:33:09.446Z,1032
2023-01-25T07:34:08.378Z,1032
2023-01-25T07:35:08.884Z,1032
2023-01-25T07:36:08.356Z,1032
2023-01-25T07:37:08.327Z,1032
2023-01-25T07:38:07.821Z,1032
2023-01-25T07:39:08.593Z,1032
2023-01-25T07:40:07.865Z,1032
2023-01-25T07:41:08.196Z,1032
2023-01-25T07:42:09.165Z,1032
2023-01-25T07:43:08.807Z,1032
2023-01-25T07:44:08.452Z,1032
2023-01-25T07:45:08.904Z,1032
2023-01-25T07:46:07.837Z,1032
2023-01-25T07:47:08.010Z,1032
2023-01-25T07:48:08.633Z,1032
2023-01-25T07:49:08.513Z,1032
2023-01-25T07:50:08.360Z,1032
2023-01-25T07:51:09.280Z,1032
2023-01-25T07:52:10.066Z,1032
2023-01-25T07:53:07.768Z,1032
2023-01-25T07:54:08.364Z,1032
2023-01-25T07:55:08.443Z,1032
2023-01-25T07:56:08.880Z,1032
2023-01-25T07:57:08.905Z,1032
2023-01-25T07:58:08.050Z,1032
2023-01-25T07:59:08.909Z,1032
2023-01-25T08:00:09.014Z,1032
2023-01-25T08:01:08.318Z,1032
2023-01-25T08:02:08.380Z,1032
2023-01-25T08:03:08.023Z,1032
2023-01-25T08:04:08.409Z,1032
2023-01-25T08:05:08.771Z,1032
2023-01-25T08:06:07.771Z,1032
2023-01-25T08:07:08.545Z,1032
2023-01-25T08:08:08.656Z,1032
2023-01-25T08:09:07.844Z,1032
2023-01-25T08:10:08.747Z,1032
2023-01-25T08:11:07.800Z,1032
2023-01-25T08:12:08.838Z,1032
2023-01-25T08:13:08.250Z,1032
2023-01-25T08:14:08.359Z,1032
2023-01-25T08:15:09.540Z,1032
2023-01-25T08:16:08.397Z,1032
2023-01-25T08:17:08.524Z,1032
2023-01-25T08:18:07.868Z,1032
2023-01-25T08:19:08.426Z,1032
2023-01-25T08:20:08.025Z,1032
2023-01-25T08:21:08.934Z,1032
2023-01-25T08:22:08.401Z,1032
2023-01-25T08:23:07.911Z,1032
2023-01-25T08:24:08.019Z,1032
2023-01-25T08:25:08.202Z,1032
2023-01-25T08:26:07.871Z,1032
2023-01-25T08:27:09.126Z,1032
2023-01-25T08:28:07.956Z,1032
2023-01-25T08:29:07.771Z,1032
2023-01-25T08:30:09.175Z,1032
2023-01-25T08:31:07.786Z,1032
2023-01-25T08:32:08.078Z,1032
2023-01-25T08:33:09.328Z,1032
2023-01-25T08:34:08.807Z,1032
2023-01-25T08:35:08.816Z,1032
2023-01-25T08:36:08.424Z,1032
2023-01-25T08:37:07.824Z,1032
2023-01-25T08:38:08.391Z,1032
2023-01-25T08:39:08.830Z,1032
2023-01-25T08:40:09.217Z,1032
2023-01-25T08:41:10.411Z,1032
2023-01-25T08:42:08.107Z,1032
2023-01-25T08:43:08.179Z,1032
2023-01-25T08:44:08.011Z,1032
2023-01-25T08:45:09.299Z,1032
2023-01-25T08:46:08.296Z,1032
2023-01-25T08:47:08.037Z,1032
2023-01-25T08:48:08.502Z,1032
2023-01-25T08:49:07.887Z,1032
2023-01-25T08:50:08.958Z,1032
2023-01-25T08:51:09.357Z,1032
2023-01-25T08:52:08.424Z,1032
2023-01-25T08:53:08.219Z,1032
2023-01-25T08:54:08.216Z,1032
2023-01-25T08:55:09.160Z,1032
2023-01-25T08:56:10.003Z,1032
2023-01-25T08:57:09.065Z,1032
2023-01-25T08:58:09.340Z,1032
2023-01-25T08:59:08.767Z,1032
2023-01-25T09:00:08.919Z,1032
2023-01-25T09:01:08.075Z,1032
2023-01-25T09:02:06.642Z,1032
2023-01-25T09:03:07.860Z,1032
2023-01-25T09:04:08.808Z,1032
2023-01-25T09:05:08.210Z,1032
2023-01-25T09:06:08.284Z,1032
2023-01-25T09:07:08.496Z,1032
2023-01-25T09:08:08.394Z,1032
2023-01-25T09:09:08.320Z,1032
2023-01-25T09:10:08.813Z,1032
2023-01-25T09:11:07.844Z,1032
2023-01-25T09:12:08.460Z,1032
2023-01-25T09:13:08.883Z,1032
2023-01-25T09:14:08.494Z,1032
2023-01-25T09:15:08.599Z,1032
2023-01-25T09:16:08.471Z,1032
2023-01-25T09:17:09.042Z,1032
2023-01-25T09:18:07.840Z,1032
2023-01-25T09:19:08.661Z,1032
2023-01-25T09:20:09.084Z,1032
2023-01-25T09:21:07.829Z,1032
2023-01-25T09:22:08.578Z,1032
2023-01-25T09:23:08.361Z,1032
2023-01-25T09:24:09.072Z,1032
2023-01-25T09:25:09.536Z,1032
2023-01-25T09:26:07.831Z,1032
2023-01-25T09:27:08.105Z,1032
2023-01-25T09:28:08.534Z,1032
2023-01-25T09:29:08.484Z,1032
2023-01-25T09:30:13.512Z,1032
2023-01-25T09:31:21.207Z,1032
2023-01-25T09:32:07.851Z,1032
2023-01-25T09:33:09.195Z,1032
2023-01-25T09:34:09.161Z,1032
2023-01-25T09:35:08.340Z,1032
2023-01-25T09:36:07.805Z,1032
2023-01-25T09:37:07.958Z,1032
2023-01-25T09:38:08.381Z,1032
2023-01-25T09:39:08.235Z,1032
2023-01-25T09:40:09.032Z,1032
2023-01-25T09:41:08.543Z,1032
2023-01-25T09:42:14.621Z,1032
2023-01-25T09:43:08.585Z,1032
2023-01-25T09:44:15.020Z,1032
2023-01-25T09:45:07.783Z,1032
2023-01-25T09:46:08.312Z,1032
2023-01-25T09:47:06.607Z,1032
2023-01-25T09:48:08.022Z,1032
2023-01-25T09:49:10.392Z,1032
2023-01-25T09:50:08.781Z,1032
2023-01-25T09:51:08.319Z,1032
2023-01-25T09:52:08.050Z,1032
2023-01-25T09:53:07.854Z,1032
2023-01-25T09:54:08.788Z,1032
2023-01-25T09:55:09.428Z,1032
2023-01-25T09:56:09.279Z,1031
2023-01-25T09:57:08.329Z,1031
2023-01-25T09:58:08.205Z,1031
2023-01-25T09:59:08.117Z,1031
2023-01-25T10:00:08.647Z,1032
2023-01-25T10:01:14.057Z,1031
2023-01-25T10:02:08.117Z,1031
2023-01-25T10:03:08.466Z,1031
2023-01-25T10:04:08.379Z,1031
2023-01-25T10:05:08.191Z,1031
2023-01-25T10:06:08.386Z,1031
2023-01-25T10:07:08.428Z,1031
2023-01-25T10:08:08.151Z,1031
2023-01-25T10:10:09.299Z,1031
2023-01-25T10:11:08.770Z,1031
2023-01-25T10:12:09.116Z,1031
2023-01-25T10:13:08.280Z,1031
2023-01-25T10:14:07.810Z,1031
2023-01-25T10:15:08.493Z,1031
2023-01-25T10:16:17.588Z,1031
2023-01-25T10:17:08.887Z,1031
2023-01-25T10:18:07.808Z,1031
2023-01-25T10:19:08.889Z,1031
2023-01-25T10:20:08.249Z,1031
2023-01-25T10:21:07.794Z,1031
2023-01-25T10:22:08.605Z,1031
2023-01-25T10:23:08.652Z,1031
2023-01-25T10:24:08.342Z,1031
2023-01-25T10:25:08.567Z,1031
2023-01-25T10:26:07.894Z,1031
2023-01-25T10:27:08.549Z,1031
2023-01-25T10:28:07.802Z,1031
2023-01-25T10:29:08.084Z,1031
2023-01-25T10:30:08.265Z,1031
2023-01-25T10:31:08.194Z,1031
2023-01-25T10:32:09.417Z,1031
2023-01-25T10:33:08.408Z,1031
2023-01-25T10:34:08.419Z,1031
2023-01-25T10:35:09.334Z,1031
2023-01-25T10:36:08.357Z,1031
2023-01-25T10:37:08.959Z,1031
2023-01-25T10:38:08.996Z,1031
2023-01-25T10:39:08.423Z,1031
2023-01-25T10:40:07.996Z,1031
2023-01-25T10:41:10.475Z,1031
2023-01-25T10:42:07.813Z,1031
2023-01-25T10:43:08.288Z,1031
2023-01-25T10:44:09.040Z,1031
2023-01-25T10:45:08.994Z,1031
2023-01-25T10:46:07.782Z,1031
2023-01-25T10:47:08.545Z,1031
2023-01-25T10:48:08.443Z,1031
2023-01-25T10:49:08.767Z,1031
2023-01-25T10:50:08.234Z,1031
2023-01-25T10:51:08.522Z,1031
2023-01-25T10:52:09.395Z,1031
2023-01-25T10:53:08.799Z,1031
2023-01-25T10:54:07.837Z,1031
2023-01-25T10:55:08.565Z,1031
2023-01-25T10:56:08.980Z,1031
2023-01-25T10:57:08.533Z,1031
2023-01-25T10:58:08.586Z,1031
2023-01-25T10:59:07.964Z,1031
2023-01-25T11:00:08.225Z,1031
2023-01-25T11:01:08.813Z,1031
2023-01-25T11:02:08.403Z,1031
2023-01-25T11:03:08.050Z,1031
2023-01-25T11:04:07.786Z,1031
2023-01-25T11:05:09.089Z,1031
2023-01-25T11:06:07.918Z,1031
2023-01-25T11:07:08.954Z,1031
2023-01-25T11:08:08.269Z,1031
2023-01-25T11:09:07.889Z,1031
2023-01-25T11:10:08.174Z,1031
2023-01-25T11:11:07.814Z,1031
2023-01-25T11:12:08.096Z,1031
2023-01-25T11:13:08.383Z,1031
2023-01-25T11:14:08.813Z,1031
2023-01-25T11:15:08.916Z,1031
2023-01-25T11:16:09.223Z,1031
2023-01-25T11:17:08.844Z,1031
2023-01-25T11:18:08.294Z,1031
2023-01-25T11:19:08.341Z,1031
2023-01-25T11:20:08.657Z,1031
2023-01-25T11:21:08.473Z,1030
2023-01-25T11:22:07.960Z,1030
2023-01-25T11:23:08.435Z,1030
2023-01-25T11:24:09.161Z,1030
2023-01-25T11:25:08.628Z,1030
2023-01-25T11:26:08.527Z,1030
2023-01-25T11:27:08.432Z,1030
2023-01-25T11:28:10.588Z,1030
2023-01-25T11:29:07.899Z,1030
2023-01-25T11:30:09.661Z,1030
2023-01-25T11:31:09.178Z,1030
2023-01-25T11:32:07.827Z,1030
2023-01-25T11:33:08.759Z,1030
2023-01-25T11:34:08.093Z,1030
2023-01-25T11:35:08.309Z,1030
2023-01-25T11:36:08.744Z,1030
2023-01-25T11:37:07.917Z,1030
2023-01-25T11:38:08.251Z,1030
2023-01-25T11:39:08.164Z,1030
2023-01-25T11:40:09.083Z,1030
2023-01-25T11:41:08.480Z,1030
2023-01-25T13:02:31.647Z,1029
2023-01-25T13:03:24.829Z,1029
2023-01-25T13:04:20.370Z,1028
2023-01-25T13:05:13.963Z,1028
2023-01-25T13:06:08.337Z,1028
2023-01-25T13:06:48.476Z,1028
2023-01-25T13:06:58.735Z,1029
2023-01-25T13:07:48.166Z,1028
2023-01-25T13:07:58.417Z,1029
2023-01-25T13:08:32.163Z,1028
2023-01-25T13:09:27.077Z,1028
2023-01-25T13:10:27.110Z,1028
2023-01-25T13:11:21.539Z,1028
2023-01-25T13:12:21.655Z,1028
2023-01-25T13:13:21.390Z,1028
2023-01-25T13:14:22.145Z,1028
2023-01-25T13:15:21.338Z,1028
2023-01-25T13:16:21.160Z,1028
2023-01-25T13:17:21.006Z,1028
2023-01-25T13:18:21.850Z,1028
2023-01-25T13:19:21.123Z,1028
2023-01-25T13:20:21.069Z,1028
2023-01-25T13:21:21.135Z,1028
2023-01-25T13:22:22.154Z,1028
2023-01-25T13:23:21.408Z,1028
2023-01-25T13:24:21.431Z,1028
2023-01-25T13:25:21.201Z,1028
2023-01-25T13:26:21.765Z,1028
2023-01-25T13:27:21.171Z,1028
2023-01-25T13:28:21.136Z,1028
2023-01-25T13:29:21.056Z,1028
2023-01-25T13:30:21.588Z,1028
2023-01-25T13:31:21.198Z,1028
2023-01-25T13:32:21.247Z,1028
2023-01-25T13:33:21.137Z,1028
2023-01-25T13:34:20.185Z,1028
2023-01-25T13:35:21.843Z,1028
2023-01-25T13:36:21.059Z,1028
2023-01-25T13:37:21.907Z,1028
2023-01-25T13:38:22.308Z,1028
2023-01-25T13:39:21.537Z,1028
2023-01-25T13:40:21.081Z,1028
2023-01-25T13:41:21.737Z,1028
2023-01-25T13:42:21.652Z,1028
2023-01-25T13:43:21.579Z,1028
2023-01-25T13:44:21.871Z,1028
2023-01-25T13:45:21.516Z,1028
2023-01-25T13:46:22.349Z,1028
2023-01-25T13:47:21.136Z,1028
2023-01-25T13:48:21.371Z,1028
2023-01-25T13:49:21.639Z,1028
2023-01-25T13:50:21.238Z,1028
2023-01-25T13:51:21.058Z,1028
2023-01-25T13:52:22.191Z,1028
2023-01-25T13:53:22.674Z,1028
2023-01-25T13:54:21.640Z,1028
2023-01-25T13:55:21.673Z,1028
2023-01-25T13:56:21.084Z,1028
2023-01-25T13:57:22.139Z,1028
2023-01-25T13:58:20.907Z,1028
2023-01-25T13:59:21.415Z,1028
2023-01-25T14:00:21.050Z,1028
2023-01-25T14:01:21.096Z,1028
2023-01-25T14:02:22.447Z,1028
2023-01-25T14:03:21.803Z,1028
2023-01-25T14:04:21.504Z,1028
2023-01-25T14:05:21.188Z,1028
2023-01-25T14:07:21.738Z,1027
2023-01-25T14:08:21.483Z,1028
2023-01-25T14:09:21.408Z,1027
2023-01-25T14:10:22.045Z,1027
2023-01-25T14:11:21.481Z,1027
2023-01-25T14:12:21.112Z,1027
2023-01-25T14:13:21.048Z,1027
2023-01-25T14:14:21.553Z,1027
2023-01-25T14:15:21.166Z,1027
2023-01-25T14:16:21.681Z,1027
2023-01-25T14:17:21.077Z,1027
2023-01-25T14:18:21.701Z,1027
2023-01-25T14:19:22.402Z,1027
2023-01-25T14:20:21.462Z,1027
2023-01-25T14:21:21.361Z,1027
2023-01-25T14:22:21.767Z,1027
2023-01-25T14:23:21.363Z,1027
2023-01-25T14:24:23.091Z,1027
2023-01-25T14:25:21.563Z,1027
2023-01-25T14:26:21.062Z,1027
2023-01-25T14:27:22.773Z,1027
2023-01-25T14:28:21.538Z,1027
2023-01-25T14:29:32.682Z,1027
2023-01-25T14:30:20.260Z,1027
2023-01-25T14:31:24.723Z,1027
2023-01-25T14:32:22.158Z,1027
2023-01-25T14:33:21.885Z,1027
2023-01-25T14:34:22.142Z,1027
2023-01-25T14:35:22.787Z,1027
2023-01-25T14:36:25.584Z,1027
2023-01-25T14:37:21.557Z,1027
2023-01-25T14:38:22.406Z,1027